Terminal Aerodrome Forecast
Issued by NWS

Home | Current Version | Previous Version | Text Only | Print | Product List | Glossary Off
Versions: 1 2 3 4 5 6 7 8 9 10 11 12 13 14 15 16 17 18 19 20 21 22 23

106
FTUS43 KTOP 150249 AAA
TAFFOE
TAF AMD
KFOE 150249Z 1503/1524 08005KT P6SM OVC035
     FM150500 08005KT 6SM -FZRA BR OVC035
     FM150730 08005KT P6SM OVC024
     FM151000 08005KT 4SM -FZRA BR OVC012
      TEMPO 1513/1517 FZRA BR OVC007=

USA.gov is the U.S. government's official web portal to all federal, state and local government web resources and services.